createdAt,value
2022-11-24T00:00:41.868Z,94737.3
2022-11-24T00:01:44.073Z,94736.1
2022-11-24T00:02:46.833Z,94728.4
2022-11-24T00:03:49.735Z,94731.6
2022-11-24T00:04:52.194Z,94739.4
2022-11-24T00:05:54.708Z,94745.2
2022-11-24T00:06:56.901Z,94746.2
2022-11-24T00:07:59.410Z,94749.2
2022-11-24T00:09:01.872Z,94747.6
2022-11-24T00:10:03.817Z,94750.9
2022-11-24T00:11:06.276Z,94751.3
2022-11-24T00:12:08.754Z,94751.1
2022-11-24T00:13:10.951Z,94754.6
2022-11-24T00:14:13.438Z,94758.1
2022-11-24T00:15:15.919Z,94748.8
2022-11-24T00:16:18.693Z,94759.4
2022-11-24T00:17:21.070Z,94752.7
2022-11-24T00:18:23.545Z,94758.7
2022-11-24T00:19:26.079Z,94756.3
2022-11-24T00:20:28.041Z,94761.1
2022-11-24T00:21:30.528Z,94758.6
2022-11-24T00:22:33.005Z,94759.4
2022-11-24T00:23:35.206Z,94761.2
2022-11-24T00:24:37.880Z,94762.3
2022-11-24T00:25:40.344Z,94761.9
2022-11-24T00:26:42.551Z,94758.5
2022-11-24T00:27:44.748Z,94762.1
2022-11-24T00:28:47.222Z,94754.8
2022-11-24T00:29:49.705Z,94759.4
2022-11-24T00:30:52.452Z,94768
2022-11-24T00:31:54.900Z,94766.8
2022-11-24T00:32:57.100Z,94766.8
2022-11-24T00:33:59.307Z,94768
2022-11-24T00:35:01.883Z,94759.3
2022-11-24T00:36:04.359Z,94767.8
2022-11-24T00:37:06.860Z,94768.6
2022-11-24T00:38:09.056Z,94768.2
2022-11-24T00:39:11.537Z,94773.2
2022-11-24T00:40:14.000Z,94773.5
2022-11-24T00:41:16.478Z,94775.8
2022-11-24T00:42:18.972Z,94778.3
2022-11-24T00:43:21.173Z,94775.2
2022-11-24T00:44:23.652Z,94777.4
2022-11-24T00:45:26.120Z,94775.8
2022-11-24T00:46:28.990Z,94782.8
2022-11-24T00:47:31.220Z,94775.5
2022-11-24T00:48:33.695Z,94782.2
2022-11-24T00:49:35.909Z,94780.9
2022-11-24T00:50:38.451Z,94779.4
2022-11-24T00:51:40.939Z,94784.7
2022-11-24T00:52:43.418Z,94782.9
2022-11-24T00:53:45.618Z,94789.3
2022-11-24T00:54:48.107Z,94784.1
2022-11-24T00:55:50.585Z,94790.8
2022-11-24T00:56:52.796Z,94788.1
2022-11-24T00:57:55.272Z,94787
2022-11-24T00:58:57.812Z,94793.9
2022-11-24T01:00:00.434Z,94794.3
2022-11-24T01:01:03.212Z,94800.7
2022-11-24T01:02:05.826Z,94801.5
2022-11-24T01:03:08.403Z,94808.7
2022-11-24T01:04:10.600Z,94814.5
2022-11-24T01:05:12.797Z,94812.2
2022-11-24T01:06:15.344Z,94817.1
2022-11-24T01:07:18.153Z,94810.8
2022-11-24T01:08:20.524Z,94818.1
2022-11-24T01:09:22.700Z,94816.3
2022-11-24T01:10:25.210Z,94816.3
2022-11-24T01:11:27.448Z,94821.8
2022-11-24T01:12:29.915Z,94821.5
2022-11-24T01:13:32.391Z,94819.1
2022-11-24T01:14:36.673Z,94828.6
2022-11-24T01:15:39.707Z,94823.1
2022-11-24T01:16:42.278Z,94825.9
2022-11-24T01:17:44.803Z,94826
2022-11-24T01:18:47.005Z,94828.3
2022-11-24T01:19:49.473Z,94834.9
2022-11-24T01:20:51.654Z,94841.9
2022-11-24T01:21:54.205Z,94848.4
2022-11-24T01:22:56.124Z,94853.2
2022-11-24T01:23:58.621Z,94851.8
2022-11-24T01:25:01.091Z,94846.3
2022-11-24T01:26:03.291Z,94848.7
2022-11-24T01:27:05.199Z,94849
2022-11-24T01:28:07.688Z,94850.7
2022-11-24T01:29:09.610Z,94857.5
2022-11-24T01:30:11.798Z,94856.4
2022-11-24T01:31:14.747Z,94851.2
2022-11-24T01:32:17.367Z,94857.2
2022-11-24T01:33:19.848Z,94853
2022-11-24T01:34:22.325Z,94860.5
2022-11-24T01:35:24.571Z,94856.4
2022-11-24T01:36:27.046Z,94858.2
2022-11-24T01:37:29.805Z,94866.8
2022-11-24T01:38:32.275Z,94868.7
2022-11-24T01:39:34.760Z,94865
2022-11-24T01:40:37.234Z,94869.5
2022-11-24T01:41:39.424Z,94867.9
2022-11-24T01:42:41.898Z,94870.9
2022-11-24T01:43:44.361Z,94875.2
2022-11-24T01:44:46.669Z,94873.6
2022-11-24T01:45:49.093Z,94875.6
2022-11-24T01:46:51.059Z,94877.7
2022-11-24T01:47:53.594Z,94881.1
2022-11-24T01:48:56.019Z,94888.2
2022-11-24T01:49:58.489Z,94884.1
2022-11-24T01:51:00.697Z,94884.9
2022-11-24T01:52:03.172Z,94889.3
2022-11-24T01:53:05.712Z,94890.3
2022-11-24T01:54:08.204Z,94895.2
2022-11-24T01:55:10.408Z,94899.6
2022-11-24T01:56:12.329Z,94891.8
2022-11-24T01:57:14.534Z,94893.7
2022-11-24T01:58:17.008Z,94896.9
2022-11-24T01:59:19.474Z,94898.1
2022-11-24T02:00:21.948Z,94901.4
2022-11-24T02:01:24.370Z,94898.5
2022-11-24T02:02:26.940Z,94900.5
2022-11-24T02:03:29.551Z,94904.2
2022-11-24T02:04:32.115Z,94906.6
2022-11-24T02:05:34.811Z,94905.1
2022-11-24T02:06:37.302Z,94915.2
2022-11-24T02:07:40.234Z,94919.4
2022-11-24T02:08:42.935Z,94912.6
2022-11-24T02:09:45.405Z,94914.8
2022-11-24T02:10:47.628Z,94920.9
2022-11-24T02:11:50.099Z,94917.9
2022-11-24T02:12:52.576Z,94919.4
2022-11-24T02:13:55.043Z,94921.2
2022-11-24T02:14:57.518Z,94924.1
2022-11-24T02:16:00.217Z,94921.6
2022-11-24T02:17:02.539Z,94927.6
2022-11-24T02:18:04.725Z,94930
2022-11-24T02:19:07.216Z,94928.5
2022-11-24T02:20:09.715Z,94929.6
2022-11-24T02:21:11.918Z,94926.2
2022-11-24T02:22:13.928Z,94928
2022-11-24T02:23:15.858Z,94929.2
2022-11-24T02:24:18.655Z,94928.9
2022-11-24T02:25:21.120Z,94930.9
2022-11-24T02:26:23.606Z,94932.4
2022-11-24T02:27:25.805Z,94933.4
2022-11-24T02:28:28.000Z,94933.9
2022-11-24T02:29:30.193Z,94937.3
2022-11-24T02:30:32.677Z,94940.8
2022-11-24T02:31:35.120Z,94938.2
2022-11-24T02:32:37.701Z,94934.2
2022-11-24T02:33:39.625Z,94939.4
2022-11-24T02:34:42.105Z,94943.6
2022-11-24T02:35:44.303Z,94943.4
2022-11-24T02:36:46.503Z,94943.4
2022-11-24T02:37:48.717Z,94950.1
2022-11-24T02:38:50.909Z,94946.8
2022-11-24T02:39:53.439Z,94947
2022-11-24T02:40:55.658Z,94953.8
2022-11-24T02:41:57.892Z,94947.3
2022-11-24T02:43:00.108Z,94950.4
2022-11-24T02:44:02.295Z,94949.5
2022-11-24T02:45:04.209Z,94947.4
2022-11-24T02:46:06.944Z,94946.4
2022-11-24T02:47:09.521Z,94949.1
2022-11-24T02:48:11.994Z,94948.3
2022-11-24T02:49:13.923Z,94945.8
2022-11-24T02:50:16.386Z,94947.7
2022-11-24T02:51:18.623Z,94947.5
2022-11-24T02:52:21.143Z,94948.3
2022-11-24T02:53:23.638Z,94946.2
2022-11-24T02:54:26.106Z,94954.3
2022-11-24T02:55:28.358Z,94953.6
2022-11-24T02:56:30.821Z,94950.4
2022-11-24T02:57:33.037Z,94955.1
2022-11-24T02:58:35.506Z,94953.5
2022-11-24T02:59:37.980Z,94953
2022-11-24T03:00:40.462Z,94957.6
2022-11-24T03:01:43.156Z,94955
2022-11-24T03:02:46.043Z,94957.6
2022-11-24T03:03:48.785Z,94960.4
2022-11-24T03:04:51.255Z,94955.8
2022-11-24T03:05:53.454Z,94956.9
2022-11-24T03:06:55.941Z,94959.9
2022-11-24T03:07:58.463Z,94957.4
2022-11-24T03:09:00.381Z,94957
2022-11-24T03:10:02.849Z,94959.1
2022-11-24T03:11:05.386Z,94966.5
2022-11-24T03:12:07.574Z,94958.5
2022-11-24T03:13:10.056Z,94963.6
2022-11-24T03:14:12.254Z,94963
2022-11-24T03:15:14.440Z,94962.4
2022-11-24T03:16:16.896Z,94966
2022-11-24T03:17:19.196Z,94968.7
2022-11-24T03:18:21.376Z,94969.3
2022-11-24T03:19:23.575Z,94968.2
2022-11-24T03:20:25.772Z,94969.9
2022-11-24T03:21:27.963Z,94971.5
2022-11-24T03:22:30.205Z,94973
2022-11-24T03:23:32.721Z,94976.2
2022-11-24T03:24:36.555Z,94974.9
2022-11-24T03:25:38.849Z,94974.6
2022-11-24T03:26:41.390Z,94976.6
2022-11-24T03:27:43.307Z,94975.8
2022-11-24T03:28:45.825Z,94981.5
2022-11-24T03:29:48.021Z,94976.6
2022-11-24T03:30:50.948Z,94978.4
2022-11-24T03:31:53.546Z,94975
2022-11-24T03:32:56.221Z,94978.5
2022-11-24T03:33:58.137Z,94975.9
2022-11-24T03:35:00.611Z,94982.8
2022-11-24T03:36:02.522Z,94981.2
2022-11-24T03:37:04.985Z,94980
2022-11-24T03:38:07.229Z,94985.9
2022-11-24T03:39:09.707Z,94985.1
2022-11-24T03:40:12.184Z,94983.7
2022-11-24T03:41:14.399Z,94985.3
2022-11-24T03:42:16.938Z,94986
2022-11-24T03:43:18.834Z,94986
2022-11-24T03:44:21.336Z,94981
2022-11-24T03:46:28.563Z,94990.2
2022-11-24T03:47:30.790Z,94986.6
2022-11-24T03:48:33.256Z,94988.4
2022-11-24T03:49:36.494Z,94987.7
2022-11-24T03:50:39.048Z,94986.6
2022-11-24T03:51:41.606Z,94991.5
2022-11-24T03:52:44.080Z,94992.4
2022-11-24T03:53:46.605Z,94989.8
2022-11-24T03:54:49.091Z,94988.2
2022-11-24T03:55:51.296Z,94992.8
2022-11-24T03:56:53.819Z,94993.8
2022-11-24T03:57:56.484Z,94999.1
2022-11-24T03:58:58.976Z,94998.2
2022-11-24T04:00:00.945Z,94993.5
2022-11-24T04:01:03.469Z,94996.5
2022-11-24T04:02:06.397Z,95002.2
2022-11-24T04:03:08.716Z,95002.4
2022-11-24T04:04:11.360Z,95005.2
2022-11-24T04:05:13.563Z,95007.1
2022-11-24T04:06:15.760Z,95002.2
2022-11-24T04:07:18.572Z,95006.3
2022-11-24T04:08:21.265Z,95007.6
2022-11-24T04:09:23.860Z,95006.2
2022-11-24T04:10:26.060Z,95009
2022-11-24T04:11:28.523Z,95006.8
2022-11-24T04:12:30.724Z,95008.9
2022-11-24T04:13:33.266Z,95008.7
2022-11-24T04:14:37.651Z,95006.1
2022-11-24T04:15:40.129Z,95006.8
2022-11-24T04:16:42.739Z,95005.1
2022-11-24T04:17:45.099Z,95008.5
2022-11-24T04:18:47.917Z,95008.5
2022-11-24T04:19:50.115Z,95014.1
2022-11-24T04:20:52.604Z,95012.2
2022-11-24T04:21:55.068Z,95012.7
2022-11-24T04:22:57.025Z,95017.7
2022-11-24T04:23:59.408Z,95012.7
2022-11-24T04:25:01.677Z,95012.3
2022-11-24T04:26:03.871Z,95019.8
2022-11-24T04:27:06.349Z,95019.3
2022-11-24T04:28:08.550Z,95015.5
2022-11-24T04:29:11.093Z,95016.9
2022-11-24T04:30:13.563Z,95021.9
2022-11-24T04:31:16.449Z,95026
2022-11-24T04:32:18.762Z,95022.6
2022-11-24T04:33:20.963Z,95025.2
2022-11-24T04:34:23.431Z,95027.1
2022-11-24T04:35:25.628Z,95025.9
2022-11-24T04:36:27.815Z,95026.3
2022-11-24T04:37:30.300Z,95031.2
2022-11-24T04:39:37.770Z,95030.1
2022-11-24T04:40:40.269Z,95025
2022-11-24T04:41:42.201Z,95031
2022-11-24T04:42:44.406Z,95032.5
2022-11-24T04:43:46.880Z,95029.4
2022-11-24T04:44:49.438Z,95028.2
2022-11-24T04:45:51.902Z,95028.1
2022-11-24T04:46:54.603Z,95027.4
2022-11-24T04:47:57.200Z,95024.5
2022-11-24T04:48:59.100Z,95031.6
2022-11-24T04:50:01.016Z,95029
2022-11-24T04:51:03.231Z,95024.2
2022-11-24T04:52:05.761Z,95034.4
2022-11-24T04:53:08.249Z,95029.8
2022-11-24T04:54:10.437Z,95033.5
2022-11-24T04:55:12.651Z,95031.9
2022-11-24T04:56:15.151Z,95038.4
2022-11-24T04:57:17.367Z,95034.8
2022-11-24T04:58:19.861Z,95039.5
2022-11-24T04:59:22.353Z,95044
2022-11-24T05:00:24.889Z,95048.3
2022-11-24T05:01:27.611Z,95050.1
2022-11-24T05:02:30.279Z,95051.7
2022-11-24T05:03:32.758Z,95054.3
2022-11-24T05:04:36.939Z,95055.7
2022-11-24T05:05:40.121Z,95053.3
2022-11-24T05:06:42.037Z,95054.1
2022-11-24T05:07:44.406Z,95054.9
2022-11-24T05:08:47.004Z,95060.2
2022-11-24T05:10:54.241Z,95062.9
2022-11-24T05:11:56.190Z,95065.3
2022-11-24T05:12:58.653Z,95072.5
2022-11-24T05:14:01.135Z,95070.4
2022-11-24T05:15:03.609Z,95072.1
2022-11-24T05:16:06.547Z,95074.4
2022-11-24T05:17:09.085Z,95078.5
2022-11-24T05:18:11.323Z,95079.3
2022-11-24T05:19:13.802Z,95076.2
2022-11-24T05:20:15.986Z,95082.6
2022-11-24T05:21:18.247Z,95078
2022-11-24T05:22:20.736Z,95083.9
2022-11-24T05:23:23.200Z,95087.4
2022-11-24T05:24:25.693Z,95085.1
2022-11-24T05:25:27.894Z,95090.4
2022-11-24T05:26:30.136Z,95088.3
2022-11-24T05:27:32.666Z,95087.1
2022-11-24T05:28:34.853Z,95092.3
2022-11-24T05:29:37.342Z,95089.4
2022-11-24T05:30:39.874Z,95089.3
2022-11-24T05:31:42.423Z,95089.9
2022-11-24T05:32:45.023Z,95091.8
2022-11-24T05:33:47.529Z,95095.2
2022-11-24T05:34:50.014Z,95099.6
2022-11-24T05:35:52.482Z,95098.4
2022-11-24T05:36:54.987Z,95098.6
2022-11-24T05:37:57.196Z,95098.8
2022-11-24T05:38:59.675Z,95099.1
2022-11-24T05:40:02.149Z,95099.7
2022-11-24T05:41:04.635Z,95101.8
2022-11-24T05:42:06.843Z,95104.6
2022-11-24T05:43:09.357Z,95105.3
2022-11-24T05:44:11.566Z,95101.3
2022-11-24T05:45:13.785Z,95100.4
2022-11-24T05:46:15.917Z,95102.8
2022-11-24T05:47:18.637Z,95097.9
2022-11-24T05:48:21.121Z,95099.5
2022-11-24T05:49:23.635Z,95104.3
2022-11-24T05:50:25.844Z,95102.4
2022-11-24T05:51:28.322Z,95105.5
2022-11-24T05:52:30.571Z,95106.3
2022-11-24T05:53:33.128Z,95109.9
2022-11-24T05:54:36.923Z,95111.3
2022-11-24T05:55:39.475Z,95115.8
2022-11-24T05:56:41.385Z,95112.8
2022-11-24T05:57:43.868Z,95112.7
2022-11-24T05:58:46.369Z,95116.5
2022-11-24T05:59:48.900Z,95116.2
2022-11-24T06:00:51.369Z,95118.5
2022-11-24T06:01:54.372Z,95122.4
2022-11-24T06:02:57.255Z,95121.3
2022-11-24T06:04:00.035Z,95120.9
2022-11-24T06:05:02.558Z,95121.2
2022-11-24T06:06:04.760Z,95124.9
2022-11-24T06:07:07.089Z,95122.5
2022-11-24T06:08:09.717Z,95123.3
2022-11-24T06:09:12.197Z,95126.3
2022-11-24T06:10:14.675Z,95127.4
2022-11-24T06:11:16.876Z,95131.1
2022-11-24T06:12:18.721Z,95129.5
2022-11-24T06:13:21.472Z,95127.7
2022-11-24T06:14:24.222Z,95129.8
2022-11-24T06:15:26.711Z,95140.5
2022-11-24T06:16:29.175Z,95141.8
2022-11-24T06:17:31.198Z,95139.8
2022-11-24T06:18:33.184Z,95149.3
2022-11-24T06:20:42.122Z,95140.7
2022-11-24T06:21:49.120Z,95148.8
2022-11-24T06:22:51.602Z,95153.2
2022-11-24T06:23:54.073Z,95155.3
2022-11-24T06:24:56.262Z,95151.7
2022-11-24T06:25:58.185Z,95153.7
2022-11-24T06:27:00.115Z,95154.4
2022-11-24T06:28:02.304Z,95153
2022-11-24T06:29:04.235Z,95157.9
2022-11-24T06:30:06.752Z,95157.3
2022-11-24T06:31:09.605Z,95152.9
2022-11-24T06:32:11.855Z,95155.8
2022-11-24T06:33:14.053Z,95154.5
2022-11-24T06:34:16.609Z,95156.9
2022-11-24T06:35:19.083Z,95162.8
2022-11-24T06:36:21.552Z,95159.4
2022-11-24T06:37:23.811Z,95167.5
2022-11-24T06:38:26.285Z,95166.2
2022-11-24T06:39:28.484Z,95167.5
2022-11-24T06:40:30.955Z,95169.6
2022-11-24T06:41:33.438Z,95170.7
2022-11-24T06:42:35.640Z,95171.7
2022-11-24T06:43:37.824Z,95173
2022-11-24T06:44:39.492Z,95172.2
2022-11-24T06:45:42.079Z,95172.2
2022-11-24T06:46:44.686Z,95175.3
2022-11-24T06:47:47.164Z,95175
2022-11-24T06:48:49.365Z,95173.7
2022-11-24T06:49:51.930Z,95171.8
2022-11-24T06:50:54.402Z,95168.4
2022-11-24T06:51:56.882Z,95169.6
2022-11-24T06:52:59.095Z,95169.5
2022-11-24T06:54:01.590Z,95172.5
2022-11-24T06:55:03.769Z,95171.7
2022-11-24T06:57:13.624Z,95175.3
2022-11-24T06:58:15.563Z,95173.9
2022-11-24T06:59:17.812Z,95176.9
2022-11-24T07:00:20.384Z,95178.9
2022-11-24T07:01:23.462Z,95178.3
2022-11-24T07:02:25.549Z,95176.7
2022-11-24T07:03:28.210Z,95180.1
2022-11-24T07:04:30.841Z,95181.2
2022-11-24T07:05:33.600Z,95186.1
2022-11-24T07:06:35.513Z,95186
2022-11-24T07:07:38.024Z,95183.7
2022-11-24T07:08:40.664Z,95185.5
2022-11-24T07:09:42.872Z,95185.2
2022-11-24T07:10:45.348Z,95186
2022-11-24T07:11:47.563Z,95182.5
2022-11-24T07:12:49.784Z,95183.7
2022-11-24T07:14:57.257Z,95188.4
2022-11-24T07:15:59.704Z,95186.3
2022-11-24T07:17:02.011Z,95186
2022-11-24T07:18:04.689Z,95186.3
2022-11-24T07:19:06.605Z,95190
2022-11-24T07:20:09.102Z,95187.3
2022-11-24T07:21:11.672Z,95180.6
2022-11-24T07:22:14.171Z,95186.2
2022-11-24T07:23:16.097Z,95181.8
2022-11-24T07:24:18.601Z,95181.3
2022-11-24T07:25:20.936Z,95182.4
2022-11-24T07:26:23.167Z,95181.5
2022-11-24T07:27:25.353Z,95183.2
2022-11-24T07:28:27.854Z,95186.4
2022-11-24T07:29:30.385Z,95182.5
2022-11-24T07:30:32.898Z,95183
2022-11-24T07:31:35.721Z,95184
2022-11-24T07:32:38.082Z,95186.8
2022-11-24T07:33:40.292Z,95190.6
2022-11-24T07:34:42.499Z,95191.9
2022-11-24T07:35:44.428Z,95191.8
2022-11-24T07:36:46.768Z,95194
2022-11-24T07:37:48.693Z,95195.2
2022-11-24T07:38:51.189Z,95193.4
2022-11-24T07:39:53.130Z,95195.7
2022-11-24T07:40:55.656Z,95199.2
2022-11-24T07:41:58.133Z,95195.3
2022-11-24T07:43:00.077Z,95202.7
2022-11-24T07:44:02.270Z,95204.3
2022-11-24T07:45:04.487Z,95204.3
2022-11-24T07:46:07.152Z,95203.8
2022-11-24T07:47:09.819Z,95204.8
2022-11-24T07:48:11.777Z,95204.5
2022-11-24T07:49:14.273Z,95208.6
2022-11-24T07:50:16.486Z,95207.2
2022-11-24T07:51:18.708Z,95202.3
2022-11-24T07:52:21.299Z,95204
2022-11-24T07:53:23.818Z,95202.5
2022-11-24T07:54:26.297Z,95204.6
2022-11-24T07:55:28.826Z,95199.1
2022-11-24T07:56:31.308Z,95200
2022-11-24T07:57:33.797Z,95199.9
2022-11-24T07:58:35.456Z,95197.1
2022-11-24T07:59:37.981Z,95196.8
2022-11-24T08:00:40.465Z,95195
2022-11-24T08:01:43.175Z,95193.1
2022-11-24T08:02:45.980Z,95192.3
2022-11-24T08:03:48.888Z,95192.2
2022-11-24T08:04:51.502Z,95192.6
2022-11-24T08:06:58.399Z,95193.2
2022-11-24T08:08:01.078Z,95195.4
2022-11-24T08:09:03.568Z,95190.1
2022-11-24T08:10:05.804Z,95188.8
2022-11-24T08:11:08.025Z,95186.1
2022-11-24T08:12:10.221Z,95186.9
2022-11-24T08:13:12.689Z,95190.5
2022-11-24T08:14:15.175Z,95180.4
2022-11-24T08:15:17.652Z,95180.3
2022-11-24T08:16:20.556Z,95182.3
2022-11-24T08:17:22.994Z,95178.8
2022-11-24T08:18:25.507Z,95177.9
2022-11-24T08:19:27.737Z,95180.5
2022-11-24T08:20:29.946Z,95190.1
2022-11-24T08:21:31.871Z,95187.2
2022-11-24T08:22:34.373Z,95187.3
2022-11-24T08:23:36.946Z,95185.2
2022-11-24T08:24:39.437Z,95185.9
2022-11-24T08:25:41.917Z,95187.8
2022-11-24T08:26:44.182Z,95189.9
2022-11-24T08:27:46.134Z,95192.8
2022-11-24T08:28:48.719Z,95194.7
2022-11-24T08:29:51.198Z,95189.1
2022-11-24T08:30:53.684Z,95187.3
2022-11-24T08:31:56.153Z,95194.1
2022-11-24T08:32:58.754Z,95190.2
2022-11-24T08:34:00.699Z,95192.4
2022-11-24T08:36:08.200Z,95192
2022-11-24T08:37:10.413Z,95198.7
2022-11-24T08:38:12.689Z,95199.6
2022-11-24T08:39:15.257Z,95201.1
2022-11-24T08:40:17.747Z,95203
2022-11-24T08:41:19.978Z,95199
2022-11-24T08:42:22.480Z,95203.7
2022-11-24T08:43:24.699Z,95203.5
2022-11-24T08:44:27.194Z,95201.9
2022-11-24T08:46:35.001Z,95198.4
2022-11-24T08:47:37.640Z,95198.5
2022-11-24T08:48:39.842Z,95198.4
2022-11-24T08:49:42.336Z,95201.3
2022-11-24T08:50:44.530Z,95197.8
2022-11-24T08:51:47.073Z,95196.7
2022-11-24T08:52:49.553Z,95192.5
2022-11-24T08:53:51.759Z,95198.5
2022-11-24T08:54:54.125Z,95195.1
2022-11-24T08:55:56.049Z,95192.1
2022-11-24T08:56:58.236Z,95194.1
2022-11-24T08:58:00.773Z,95199.5
2022-11-24T08:59:03.604Z,95195.9
2022-11-24T09:00:06.245Z,95198.7
2022-11-24T09:01:08.792Z,95202.6
2022-11-24T09:02:11.496Z,95201.7
2022-11-24T09:03:13.717Z,95197.7
2022-11-24T09:04:15.890Z,95200.3
2022-11-24T09:06:23.218Z,95201.6
2022-11-24T09:07:25.938Z,95198.3
2022-11-24T09:08:28.486Z,95197
2022-11-24T09:09:30.700Z,95197.6
2022-11-24T09:10:33.271Z,95201.1
2022-11-24T09:11:36.117Z,95198
2022-11-24T09:12:38.043Z,95199
2022-11-24T09:13:40.548Z,95200.8
2022-11-24T09:14:42.766Z,95194.1
2022-11-24T09:15:44.974Z,95196.9
2022-11-24T09:16:47.023Z,95191.6
2022-11-24T09:17:49.615Z,95189.6
2022-11-24T09:18:52.092Z,95191.8
2022-11-24T09:19:54.308Z,95197
2022-11-24T09:20:56.790Z,95196.8
2022-11-24T09:21:58.713Z,95197
2022-11-24T09:23:01.251Z,95199.7
2022-11-24T09:24:03.476Z,95201.9
2022-11-24T09:25:05.747Z,95201.8
2022-11-24T09:26:08.309Z,95200.4
2022-11-24T09:27:10.809Z,95197.8
2022-11-24T09:28:13.309Z,95198.3
2022-11-24T09:29:15.818Z,95202.2
2022-11-24T09:30:18.313Z,95203.1
2022-11-24T09:31:21.042Z,95203.2
2022-11-24T09:32:23.599Z,95200.9
2022-11-24T09:33:26.086Z,95202.3
2022-11-24T09:34:28.300Z,95200.1
2022-11-24T09:35:30.788Z,95201.2
2022-11-24T09:36:32.700Z,95197.8
2022-11-24T09:37:34.618Z,95200.6
2022-11-24T09:38:36.854Z,95198.1
2022-11-24T09:39:39.367Z,95196.4
2022-11-24T09:40:41.873Z,95206.4
2022-11-24T09:41:43.868Z,95203.7
2022-11-24T09:43:51.064Z,95203.5
2022-11-24T09:44:53.588Z,95205.1
2022-11-24T09:47:01.521Z,95205.1
2022-11-24T09:48:04.129Z,95201.8
2022-11-24T09:49:06.329Z,95204.4
2022-11-24T09:50:08.578Z,95210
2022-11-24T09:51:10.539Z,95208.9
2022-11-24T09:52:12.480Z,95206.6
2022-11-24T09:53:14.968Z,95206.3
2022-11-24T09:54:17.502Z,95204.3
2022-11-24T09:55:19.711Z,95200.3
2022-11-24T09:56:21.909Z,95203
2022-11-24T09:57:24.481Z,95212
2022-11-24T09:58:26.142Z,95211.9
2022-11-24T09:59:28.112Z,95217
2022-11-24T10:00:30.428Z,95214.4
2022-11-24T10:01:33.402Z,95216.8
2022-11-24T10:02:36.178Z,95216.6
2022-11-24T10:03:38.388Z,95221.6
2022-11-24T10:04:41.281Z,95223.8
2022-11-24T10:05:43.593Z,95218.1
2022-11-24T10:06:45.809Z,95228.6
2022-11-24T10:07:48.005Z,95227.9
2022-11-24T10:08:50.328Z,95233.8
2022-11-24T10:09:52.614Z,95237.2
2022-11-24T10:10:55.099Z,95239.8
2022-11-24T10:11:57.575Z,95242.8
2022-11-24T10:12:59.568Z,95242.8
2022-11-24T10:14:02.096Z,95242.6
2022-11-24T10:15:04.290Z,95248.3
2022-11-24T10:16:06.989Z,95253.1
2022-11-24T10:17:09.308Z,95257
2022-11-24T10:19:16.775Z,95262.4
2022-11-24T10:20:19.285Z,95263.5
2022-11-24T10:21:21.771Z,95259.9
2022-11-24T10:22:24.284Z,95261.9
2022-11-24T10:23:26.225Z,95262.8
2022-11-24T10:24:28.428Z,95257.2
2022-11-24T10:25:30.675Z,95262.9
2022-11-24T10:26:32.890Z,95259.6
2022-11-24T10:27:35.103Z,95258.1
2022-11-24T10:28:37.673Z,95266.5
2022-11-24T10:29:40.150Z,95260.6
2022-11-24T10:30:42.976Z,95257.3
2022-11-24T10:31:45.622Z,95274.6
2022-11-24T10:32:48.129Z,95266.6
2022-11-24T10:33:50.615Z,95271.2
2022-11-24T10:34:53.158Z,95272.1
2022-11-24T10:35:55.675Z,95266.6
2022-11-24T10:36:58.165Z,95267.2
2022-11-24T10:38:00.103Z,95266.9
2022-11-24T10:39:02.330Z,95274.3
2022-11-24T10:40:04.283Z,95274.2
2022-11-24T10:41:06.827Z,95275.5
2022-11-24T10:42:09.336Z,95275.9
2022-11-24T10:43:11.273Z,95280.1
2022-11-24T10:44:13.884Z,95276.8
2022-11-24T10:45:15.797Z,95289
2022-11-24T10:46:18.363Z,95282.8
2022-11-24T10:47:21.051Z,95276.2
2022-11-24T10:48:22.685Z,95279.6
2022-11-24T10:49:25.185Z,95283.2
2022-11-24T10:50:27.672Z,95283.5
2022-11-24T10:51:29.609Z,95283.2
2022-11-24T10:52:32.088Z,95283.9
2022-11-24T10:53:34.290Z,95281.6
2022-11-24T10:54:36.789Z,95282.2
2022-11-24T10:55:38.166Z,95282.6
2022-11-24T10:56:40.667Z,95281.3
2022-11-24T10:57:42.890Z,95277.5
2022-11-24T10:58:44.818Z,95276.4
2022-11-24T10:59:47.423Z,95273.6
2022-11-24T11:00:49.624Z,95277.4
2022-11-24T11:01:52.451Z,95279.9
2022-11-24T11:02:55.251Z,95278.2
2022-11-24T11:03:57.944Z,95281.5
2022-11-24T11:05:00.161Z,95278.5
2022-11-24T11:06:02.354Z,95278.7
2022-11-24T11:07:04.005Z,95282.8
2022-11-24T11:08:06.943Z,95278.3
2022-11-24T11:09:08.751Z,95283.5
2022-11-24T11:10:10.978Z,95285.1
2022-11-24T11:11:12.907Z,95291.6
2022-11-24T11:13:20.106Z,95291
2022-11-24T11:14:22.320Z,95288.2
2022-11-24T11:15:24.881Z,95290.3
2022-11-24T11:16:27.605Z,95296
2022-11-24T11:17:30.236Z,95291.3
2022-11-24T11:18:32.751Z,95291.3
2022-11-24T11:20:39.641Z,95287.9
2022-11-24T11:21:41.597Z,95285.5
2022-11-24T11:22:43.793Z,95283.5
2022-11-24T11:23:46.310Z,95284.8
2022-11-24T11:24:48.553Z,95282.3
2022-11-24T11:25:51.037Z,95282.6
2022-11-24T11:26:53.241Z,95285.3
2022-11-24T11:27:55.746Z,95288
2022-11-24T11:31:13.841Z,95285.9
2022-11-24T11:35:29.816Z,95290.4
2022-11-24T11:36:32.340Z,95290.4
2022-11-24T11:37:34.549Z,95290.8
2022-11-24T11:38:36.555Z,95284.3
2022-11-24T11:40:46.624Z,95289.9
2022-11-24T11:41:48.849Z,95293.6
2022-11-24T11:43:56.326Z,95295.8
2022-11-24T11:44:58.266Z,95294.4
2022-11-24T11:46:01.310Z,95297.9
2022-11-24T11:47:04.141Z,95296.6
2022-11-24T11:48:06.765Z,95294.8
2022-11-24T11:49:08.975Z,95294.4
2022-11-24T11:50:11.180Z,95296.7
2022-11-24T11:52:18.728Z,95296.3
2022-11-24T11:53:21.346Z,95292.7
2022-11-24T11:54:23.830Z,95297
2022-11-24T11:55:26.321Z,95297.2
2022-11-24T11:56:28.844Z,95294.5
2022-11-24T11:57:31.367Z,95294.1
2022-11-24T11:58:33.855Z,95302.5
2022-11-24T11:59:36.063Z,95299.2
2022-11-24T12:00:38.579Z,95297.7
2022-11-24T12:01:40.786Z,95298.4
2022-11-24T12:03:49.675Z,95298.8
2022-11-24T12:04:52.497Z,95299.6
2022-11-24T12:05:54.750Z,95297.4
2022-11-24T12:06:57.505Z,95294.4
2022-11-24T12:10:10.836Z,95299.8
2022-11-24T12:11:13.112Z,95298.9
2022-11-24T12:12:15.605Z,95295.5
2022-11-24T12:13:17.561Z,95295.8
2022-11-24T12:14:20.062Z,95296.8
2022-11-24T12:15:22.358Z,95294
2022-11-24T12:16:25.208Z,95300.8
2022-11-24T12:17:27.761Z,95301.8
2022-11-24T12:19:36.274Z,95296.3
2022-11-24T12:20:39.211Z,95298.7
2022-11-24T12:21:41.423Z,95296.9
2022-11-24T12:22:43.669Z,95296.9
2022-11-24T12:23:45.889Z,95303.4
2022-11-24T12:24:48.528Z,95299.3
2022-11-24T12:25:50.870Z,95303.8
2022-11-24T12:26:54.820Z,95300.8
2022-11-24T12:27:57.070Z,95304.3
2022-11-24T12:28:59.610Z,95309.4
2022-11-24T12:30:02.142Z,95309
2022-11-24T12:31:04.874Z,95311.9
2022-11-24T12:32:07.226Z,95314.9
2022-11-24T12:33:09.719Z,95315.8
2022-11-24T12:34:11.956Z,95311.2
2022-11-24T12:35:14.452Z,95309.5
2022-11-24T12:36:17.038Z,95309.3
2022-11-24T12:37:19.573Z,95310.3
2022-11-24T12:38:21.503Z,95308.5
2022-11-24T12:39:23.776Z,95306.7
2022-11-24T12:40:25.995Z,95307.4
2022-11-24T12:42:33.245Z,95310.9
2022-11-24T12:43:35.800Z,95309
2022-11-24T12:44:37.700Z,95304.7
2022-11-24T12:45:39.947Z,95308.5
2022-11-24T12:46:42.092Z,95310.1
2022-11-24T12:47:44.164Z,95308.6
2022-11-24T12:48:46.384Z,95311.1
2022-11-24T12:49:48.634Z,95309.7
2022-11-24T12:50:50.852Z,95310.3
2022-11-24T12:51:53.335Z,95301.5
2022-11-24T12:54:00.844Z,95302.7
2022-11-24T12:55:03.406Z,95305.9
2022-11-24T12:56:05.952Z,95307
2022-11-24T12:57:08.192Z,95308.7
2022-11-24T12:58:12.994Z,95308.6
2022-11-24T12:59:15.512Z,95309.7
2022-11-24T13:00:17.770Z,95313
2022-11-24T13:01:20.654Z,95315.5
2022-11-24T13:02:23.364Z,95316.6
2022-11-24T13:03:26.232Z,95314.2
2022-11-24T13:04:28.158Z,95314.7
2022-11-24T13:05:30.867Z,95314.8
2022-11-24T13:06:33.617Z,95314.7
2022-11-24T13:07:36.377Z,95320.7
2022-11-24T13:08:38.329Z,95328.1
2022-11-24T13:09:40.882Z,95328.4
2022-11-24T13:11:48.380Z,95324.8